KOTG

Worthington Municipal Airport

Worthington, Minnesota, USA
METAR KOTG 162356Z AUTO 25008KT 10SM CLR 01/M03 A3024 RMK AO2 SLP262 T00061033 10050 20006 53005 FZRANO
Observed Flight Rules
Dec-16 @ 23:56 UTC (26 minutes ago) Visual Flight Rules
Wind Visibility Clouds
250° at 8 knots 10 miles
  • Clear skies
Temperatures Readings
Current 1°C / 34°F
Dewpoint -3°C / 27°F
Humidity 75%
Altimeter 30.24" Hg
Pressure 1026.2 hPa
Elevation 480
METAR KOTG 162356Z AUTO 25008KT 10SM CLR 01/M03 A3024 RMK AO2 SLP262 T00061033 10050 20006 53005 FZRANO
Observed Flight Rules
Dec-16 @ 23:56 UTC
(26 minutes ago)
VFR
Wind Visibility
250° at 8 knots 10 miles
Clouds
  • Clear skies
Temperature Dewpoint
1°C / 34°F -3°C / 27°F
Humidity Altimeter Pressure
75% 30.24" Hg 1026.2 hPa